createdAt,value
2018-07-19T00:01:32.977Z,22.20
2018-07-19T00:04:57.689Z,22.20
2018-07-19T00:08:22.452Z,22.10
2018-07-19T00:11:47.109Z,22.10
2018-07-19T00:15:11.731Z,22.00
2018-07-19T00:18:36.360Z,21.90
2018-07-19T00:22:00.991Z,21.80
2018-07-19T00:25:25.685Z,21.90
2018-07-19T00:28:50.339Z,21.70
2018-07-19T00:32:15.070Z,21.70
2018-07-19T00:35:39.754Z,21.60
2018-07-19T00:39:06.103Z,21.40
2018-07-19T00:42:30.780Z,21.40
2018-07-19T00:45:55.390Z,21.40
2018-07-19T00:49:20.121Z,21.30
2018-07-19T00:52:44.766Z,21.30
2018-07-19T00:56:09.478Z,21.20
2018-07-19T01:02:58.443Z,21.10
2018-07-19T01:06:23.111Z,21.00
2018-07-19T01:09:47.864Z,21.10
2018-07-19T01:13:12.537Z,21.30
2018-07-19T01:16:37.155Z,21.30
2018-07-19T01:23:26.161Z,21.20
2018-07-19T01:26:50.937Z,21.40
2018-07-19T01:30:15.599Z,21.30
2018-07-19T01:33:40.225Z,21.20
2018-07-19T01:37:04.883Z,21.10
2018-07-19T01:40:29.485Z,20.90
2018-07-19T01:43:54.179Z,20.80
2018-07-19T01:47:18.875Z,21.00
2018-07-19T01:50:43.521Z,21.00
2018-07-19T01:54:08.190Z,21.00
2018-07-19T01:57:32.903Z,20.80
2018-07-19T02:00:57.572Z,20.60
2018-07-19T02:04:22.209Z,20.50
2018-07-19T02:07:46.880Z,20.30
2018-07-19T02:11:11.595Z,20.40
2018-07-19T02:14:36.274Z,20.30
2018-07-19T02:18:00.923Z,20.30
2018-07-19T02:21:25.570Z,20.10
2018-07-19T02:24:50.209Z,20.00
2018-07-19T02:28:14.821Z,20.00
2018-07-19T02:31:39.493Z,20.00
2018-07-19T02:35:04.194Z,20.20
2018-07-19T02:38:28.845Z,20.00
2018-07-19T02:41:53.513Z,20.00
2018-07-19T02:45:18.157Z,19.90
2018-07-19T02:48:42.787Z,19.70
2018-07-19T02:52:07.691Z,19.70
2018-07-19T02:55:32.324Z,19.60
2018-07-19T02:58:56.965Z,19.60
2018-07-19T03:02:21.611Z,19.60
2018-07-19T03:05:46.303Z,19.70
2018-07-19T03:12:35.242Z,19.70
2018-07-19T03:15:59.903Z,19.70
2018-07-19T03:19:24.533Z,19.70
2018-07-19T03:22:49.195Z,19.70
2018-07-19T03:26:13.872Z,19.60
2018-07-19T03:29:38.581Z,19.50
2018-07-19T03:36:27.592Z,19.40
2018-07-19T03:39:52.255Z,19.40
2018-07-19T03:43:16.936Z,19.40
2018-07-19T03:46:41.593Z,19.50
2018-07-19T03:50:06.685Z,19.50
2018-07-19T03:53:31.371Z,19.30
2018-07-19T03:56:56.110Z,19.40
2018-07-19T04:00:20.749Z,19.40
2018-07-19T04:03:45.433Z,19.40
2018-07-19T04:07:10.120Z,19.40
2018-07-19T04:10:34.849Z,19.30
2018-07-19T04:13:59.527Z,19.50
2018-07-19T04:17:24.201Z,19.50
2018-07-19T04:20:48.877Z,19.90
2018-07-19T04:24:13.763Z,20.10
2018-07-19T04:27:38.401Z,20.00
2018-07-19T04:31:03.134Z,19.80
2018-07-19T04:34:27.801Z,20.10
2018-07-19T04:37:52.451Z,20.10
2018-07-19T04:41:17.113Z,20.40
2018-07-19T04:44:41.823Z,20.30
2018-07-19T04:48:06.650Z,20.20
2018-07-19T04:51:31.403Z,20.30
2018-07-19T04:54:56.198Z,20.20
2018-07-19T05:01:45.384Z,20.00
2018-07-19T05:08:34.440Z,20.00
2018-07-19T05:11:59.095Z,20.10
2018-07-19T05:15:23.758Z,20.00
2018-07-19T05:18:48.452Z,20.00
2018-07-19T05:22:13.221Z,20.00
2018-07-19T05:25:38.885Z,20.00
2018-07-19T05:29:03.541Z,20.10
2018-07-19T05:32:28.177Z,20.10
2018-07-19T05:39:17.628Z,20.30
2018-07-19T05:42:42.390Z,20.20
2018-07-19T05:46:07.279Z,20.30
2018-07-19T05:49:32.006Z,20.30
2018-07-19T05:52:56.722Z,20.50
2018-07-19T05:56:21.346Z,20.50
2018-07-19T05:59:46.030Z,20.50
2018-07-19T06:03:10.716Z,20.60
2018-07-19T06:06:35.388Z,20.60
2018-07-19T06:10:00.027Z,20.60
2018-07-19T06:13:24.652Z,20.60
2018-07-19T06:16:49.354Z,20.70
2018-07-19T06:20:14.050Z,20.90
2018-07-19T06:23:38.770Z,20.90
2018-07-19T06:27:03.479Z,21.00
2018-07-19T06:30:28.146Z,21.10
2018-07-19T06:33:52.821Z,21.10
2018-07-19T06:37:17.475Z,21.20
2018-07-19T06:40:42.169Z,21.30
2018-07-19T06:44:07.150Z,21.30
2018-07-19T06:47:31.820Z,21.30
2018-07-19T06:50:56.462Z,21.30
2018-07-19T06:54:21.196Z,21.40
2018-07-19T06:57:45.874Z,21.40
2018-07-19T07:01:10.570Z,21.50
2018-07-19T07:04:35.283Z,21.70
2018-07-19T07:07:59.938Z,22.00
2018-07-19T07:11:24.717Z,22.10
2018-07-19T07:14:50.174Z,22.10
2018-07-19T07:18:14.902Z,22.20
2018-07-19T07:21:39.597Z,22.30
2018-07-19T07:25:04.303Z,22.40
2018-07-19T07:28:28.982Z,22.50
2018-07-19T07:31:53.620Z,22.60
2018-07-19T07:35:18.497Z,22.80
2018-07-19T07:38:46.284Z,22.90
2018-07-19T07:42:10.944Z,23.00
2018-07-19T07:45:35.753Z,23.10
2018-07-19T07:49:00.415Z,23.30
2018-07-19T07:52:25.108Z,23.30
2018-07-19T07:55:49.911Z,23.50
2018-07-19T07:59:14.619Z,23.60
2018-07-19T08:02:39.341Z,23.70
2018-07-19T08:06:04.165Z,23.80
2018-07-19T08:09:28.971Z,24.00
2018-07-19T08:12:53.759Z,24.00
2018-07-19T08:16:18.575Z,24.00
2018-07-19T08:19:44.250Z,24.10
2018-07-19T08:23:09.290Z,24.20
2018-07-19T08:26:34.207Z,24.50
2018-07-19T08:29:58.858Z,24.60
2018-07-19T08:36:48.738Z,24.50
2018-07-19T08:40:16.298Z,24.60
2018-07-19T08:43:41.393Z,24.70
2018-07-19T08:47:06.340Z,24.90
2018-07-19T08:53:59.405Z,24.90
2018-07-19T08:57:24.174Z,25.00
2018-07-19T09:00:48.893Z,25.20
2018-07-19T09:04:13.629Z,25.20
2018-07-19T09:07:38.294Z,25.30
2018-07-19T09:11:02.920Z,25.40
2018-07-19T09:14:27.563Z,25.40
2018-07-19T09:17:52.249Z,25.50
2018-07-19T09:21:16.939Z,25.70
2018-07-19T09:24:41.637Z,25.90
2018-07-19T09:28:06.359Z,25.80
2018-07-19T09:31:31.160Z,25.90
2018-07-19T09:34:55.956Z,25.90
2018-07-19T09:38:21.184Z,25.90
2018-07-19T09:41:45.687Z,26.00
2018-07-19T09:45:10.318Z,26.10
2018-07-19T09:48:42.106Z,26.20
2018-07-19T09:52:07.834Z,26.30
2018-07-19T09:55:34.190Z,26.50
2018-07-19T09:58:59.566Z,26.40
2018-07-19T10:02:25.084Z,26.50
2018-07-19T10:05:51.546Z,26.50
2018-07-19T10:09:17.765Z,26.60
2018-07-19T10:22:58.509Z,27.00
2018-07-19T10:26:23.126Z,27.00
2018-07-19T10:29:47.698Z,27.00
2018-07-19T10:33:16.418Z,27.10
2018-07-19T10:36:40.916Z,27.40
2018-07-19T10:40:05.856Z,27.50
2018-07-19T10:43:30.433Z,27.80
2018-07-19T10:46:55.042Z,27.90
2018-07-19T10:50:19.632Z,28.10
2018-07-19T10:53:44.214Z,28.30
2018-07-19T10:57:08.776Z,28.00
2018-07-19T11:00:33.536Z,27.90
2018-07-19T11:07:23.097Z,28.20
2018-07-19T11:10:47.660Z,28.00
2018-07-19T11:14:12.280Z,28.40
2018-07-19T11:21:01.304Z,28.60
2018-07-19T11:24:25.998Z,28.70
2018-07-19T11:27:50.602Z,28.60
2018-07-19T11:31:15.238Z,28.60
2018-07-19T11:41:28.920Z,28.80
2018-07-19T11:48:17.764Z,29.10
2018-07-19T11:51:46.972Z,29.20
2018-07-19T11:55:12.028Z,29.10
2018-07-19T11:58:39.120Z,29.10
2018-07-19T12:02:04.329Z,29.50
2018-07-19T12:05:29.955Z,29.60
2018-07-19T12:12:21.102Z,30.00
2018-07-19T12:15:46.628Z,30.10
2018-07-19T12:19:12.777Z,29.80
2018-07-19T12:22:38.030Z,29.90
2018-07-19T12:26:04.046Z,30.10
2018-07-19T12:29:28.693Z,30.20
2018-07-19T12:32:53.297Z,29.80
2018-07-19T12:36:17.979Z,30.00
2018-07-19T12:39:42.540Z,29.80
2018-07-19T12:43:07.203Z,29.90
2018-07-19T12:46:31.889Z,30.00
2018-07-19T12:49:56.512Z,29.80
2018-07-19T12:53:21.100Z,30.00
2018-07-19T12:56:45.837Z,30.50
2018-07-19T13:00:10.522Z,30.20
2018-07-19T13:03:35.124Z,30.50
2018-07-19T13:07:00.745Z,30.60
2018-07-19T13:13:49.658Z,30.70
2018-07-19T13:17:14.405Z,30.60
2018-07-19T13:20:39.056Z,30.80
2018-07-19T13:24:03.714Z,30.90
2018-07-19T13:27:28.681Z,30.90
2018-07-19T13:30:53.363Z,31.20
2018-07-19T13:34:18.038Z,31.00
2018-07-19T13:37:42.641Z,30.70
2018-07-19T13:41:08.056Z,30.80
2018-07-19T13:44:32.725Z,31.10
2018-07-19T13:47:57.782Z,30.80
2018-07-19T13:54:49.294Z,30.70
2018-07-19T13:58:13.944Z,30.80
2018-07-19T14:01:38.865Z,30.90
2018-07-19T14:05:03.511Z,30.80
2018-07-19T14:08:28.141Z,30.80
2018-07-19T14:11:52.703Z,30.80
2018-07-19T14:15:17.302Z,30.80
2018-07-19T14:18:41.887Z,31.10
2018-07-19T14:22:06.508Z,31.40
2018-07-19T14:25:31.117Z,31.20
2018-07-19T14:28:55.720Z,31.00
2018-07-19T14:32:20.312Z,31.00
2018-07-19T14:35:44.986Z,31.10
2018-07-19T14:39:12.283Z,31.00
2018-07-19T14:42:36.796Z,30.80
2018-07-19T14:46:01.301Z,30.60
2018-07-19T14:49:25.876Z,30.80
2018-07-19T14:52:50.389Z,31.00
2018-07-19T14:59:39.277Z,31.80
2018-07-19T15:03:03.859Z,32.10
2018-07-19T15:06:28.360Z,31.80
2018-07-19T15:09:53.016Z,31.70
2018-07-19T15:13:17.632Z,31.90
2018-07-19T15:16:42.240Z,32.30
2018-07-19T15:20:06.794Z,32.30
2018-07-19T15:23:31.402Z,32.60
2018-07-19T15:26:55.972Z,32.70
2018-07-19T15:30:20.549Z,32.40
2018-07-19T15:33:45.120Z,32.10
2018-07-19T15:37:09.732Z,32.30
2018-07-19T15:40:34.327Z,32.40
2018-07-19T15:43:58.926Z,32.30
2018-07-19T15:47:23.466Z,32.40
2018-07-19T15:50:48.074Z,32.20
2018-07-19T15:54:12.748Z,32.80
2018-07-19T15:57:37.374Z,33.20
2018-07-19T16:01:02.026Z,33.30
2018-07-19T16:04:26.604Z,33.70
2018-07-19T16:07:51.330Z,33.60
2018-07-19T16:11:17.906Z,33.30
2018-07-19T16:14:42.697Z,33.40
2018-07-19T16:18:07.531Z,33.10
2018-07-19T16:21:32.096Z,33.20
2018-07-19T16:24:56.781Z,33.30
2018-07-19T16:28:21.302Z,33.20
2018-07-19T16:31:45.833Z,33.60
2018-07-19T16:35:10.408Z,33.60
2018-07-19T16:38:35.024Z,33.80
2018-07-19T16:41:59.610Z,33.90
2018-07-19T16:45:24.210Z,33.40
2018-07-19T16:48:50.486Z,33.00
2018-07-19T16:52:15.688Z,32.80
2018-07-19T16:59:04.738Z,32.80
2018-07-19T17:02:29.381Z,33.30
2018-07-19T17:05:54.127Z,33.50
2018-07-19T17:09:18.829Z,33.60
2018-07-19T17:12:43.506Z,33.60
2018-07-19T17:16:08.215Z,33.60
2018-07-19T17:19:32.959Z,33.40
2018-07-19T17:22:57.648Z,33.10
2018-07-19T17:26:22.357Z,33.30
2018-07-19T17:29:47.006Z,33.10
2018-07-19T17:33:11.678Z,33.10
2018-07-19T17:40:00.663Z,32.40
2018-07-19T17:43:25.320Z,32.30
2018-07-19T17:46:50.119Z,32.40
2018-07-19T17:50:14.775Z,32.20
2018-07-19T17:53:39.437Z,32.20
2018-07-19T17:57:04.121Z,32.00
2018-07-19T18:00:28.827Z,31.80
2018-07-19T18:03:53.630Z,31.70
2018-07-19T18:07:18.363Z,31.70
2018-07-19T18:10:43.066Z,31.50
2018-07-19T18:14:08.380Z,31.20
2018-07-19T18:17:33.062Z,31.10
2018-07-19T18:20:58.998Z,30.70
2018-07-19T18:24:23.690Z,30.40
2018-07-19T18:27:48.415Z,30.10
2018-07-19T18:31:13.870Z,29.90
2018-07-19T18:34:38.500Z,29.80
2018-07-19T18:38:03.162Z,29.70
2018-07-19T18:41:28.617Z,29.50
2018-07-19T18:44:53.416Z,29.40
2018-07-19T18:48:18.203Z,29.30
2018-07-19T19:01:55.417Z,28.80
2018-07-19T19:05:20.242Z,28.60
2018-07-19T19:08:44.926Z,28.50
2018-07-19T19:12:09.578Z,28.30
2018-07-19T19:18:58.601Z,27.90
2018-07-19T19:22:23.272Z,27.70
2018-07-19T19:29:12.476Z,27.40
2018-07-19T19:32:37.208Z,27.20
2018-07-19T19:36:01.909Z,27.10
2018-07-19T19:39:26.757Z,26.90
2018-07-19T19:46:17.908Z,26.50
2018-07-19T19:49:42.616Z,26.40
2018-07-19T19:53:07.304Z,26.20
2018-07-19T19:56:31.958Z,26.10
2018-07-19T19:59:56.927Z,26.10
2018-07-19T20:06:45.952Z,26.00
2018-07-19T20:10:11.690Z,25.90
2018-07-19T20:13:36.350Z,25.80
2018-07-19T20:17:01.064Z,25.70
2018-07-19T20:20:25.700Z,25.70
2018-07-19T20:23:50.340Z,25.60
2018-07-19T20:27:14.977Z,25.50
2018-07-19T20:30:39.673Z,25.50
2018-07-19T20:34:04.440Z,25.40
2018-07-19T20:37:29.180Z,25.40
2018-07-19T20:40:53.893Z,25.40
2018-07-19T20:44:18.556Z,25.30
2018-07-19T20:47:43.237Z,25.20
2018-07-19T20:54:32.241Z,25.10
2018-07-19T21:01:21.180Z,24.80
2018-07-19T21:04:45.847Z,24.70
2018-07-19T21:08:10.563Z,24.60
2018-07-19T21:11:35.188Z,24.60
2018-07-19T21:14:59.865Z,24.50
2018-07-19T21:21:48.918Z,24.40
2018-07-19T21:25:13.598Z,24.40
2018-07-19T21:28:38.246Z,24.40
2018-07-19T21:32:03.064Z,24.30
2018-07-19T21:35:27.750Z,24.30
2018-07-19T21:42:16.696Z,24.40
2018-07-19T21:45:41.384Z,24.30
2018-07-19T21:49:06.766Z,24.20
2018-07-19T21:52:31.445Z,24.20
2018-07-19T21:59:20.666Z,24.00
2018-07-19T22:02:45.452Z,24.00
2018-07-19T22:06:10.450Z,24.00
2018-07-19T22:09:35.168Z,24.00
2018-07-19T22:13:00.211Z,24.00
2018-07-19T22:19:50.566Z,23.90
2018-07-19T22:23:15.621Z,23.80
2018-07-19T22:26:40.548Z,23.90
2018-07-19T22:30:05.386Z,23.70
2018-07-19T22:33:30.145Z,23.70
2018-07-19T22:36:54.836Z,23.90
2018-07-19T22:40:19.481Z,23.90
2018-07-19T22:43:44.209Z,23.80
2018-07-19T22:53:57.662Z,23.70
2018-07-19T22:57:24.188Z,23.60
2018-07-19T23:00:48.955Z,23.60
2018-07-19T23:04:13.739Z,23.70
2018-07-19T23:07:38.803Z,23.70
2018-07-19T23:11:03.616Z,23.60
2018-07-19T23:14:28.300Z,23.50
2018-07-19T23:17:54.150Z,23.40
2018-07-19T23:28:07.766Z,23.60
2018-07-19T23:31:32.549Z,23.60
2018-07-19T23:34:57.396Z,23.60
2018-07-19T23:38:27.204Z,23.50
2018-07-19T23:42:28.810Z,23.40
2018-07-19T23:45:58.816Z,23.30
2018-07-19T23:56:12.239Z,23.10
2018-07-19T23:59:37.744Z,23.20
